createdAt,value
2023-05-04T00:01:24.007Z,8.30
2023-05-04T00:03:57.763Z,8.70
2023-05-04T00:06:31.418Z,8.70
2023-05-04T00:09:05.125Z,8.70
2023-05-04T00:11:38.704Z,9.20
2023-05-04T00:14:12.720Z,9.50
2023-05-04T00:16:46.337Z,9.00
2023-05-04T00:19:20.259Z,9.30
2023-05-04T00:21:54.304Z,9.00
2023-05-04T00:24:28.137Z,9.40
2023-05-04T00:27:02.709Z,8.20
2023-05-04T00:29:36.426Z,10.70
2023-05-04T00:32:10.906Z,9.60
2023-05-04T00:34:44.705Z,9.90
2023-05-04T00:37:18.411Z,8.80
2023-05-04T00:39:52.317Z,9.30
2023-05-04T00:42:26.464Z,9.00
2023-05-04T00:45:01.111Z,9.40
2023-05-04T00:47:34.873Z,9.60
2023-05-04T00:50:10.627Z,8.70
2023-05-04T00:52:46.547Z,9.00
2023-05-04T00:55:20.641Z,9.40
2023-05-04T00:57:54.945Z,8.70
2023-05-04T01:00:28.765Z,9.50
2023-05-04T01:03:02.840Z,9.20
2023-05-04T01:05:45.033Z,8.90
2023-05-04T01:08:27.530Z,9.00
2023-05-04T01:11:09.195Z,7.50
2023-05-04T01:13:44.956Z,9.20
2023-05-04T01:16:18.512Z,9.50
2023-05-04T01:18:52.273Z,9.10
2023-05-04T01:21:32.228Z,9.70
2023-05-04T01:24:06.310Z,8.20
2023-05-04T01:26:43.962Z,8.10
2023-05-04T01:29:20.767Z,9.20
2023-05-04T01:31:56.312Z,9.40
2023-05-04T01:34:29.750Z,8.60
2023-05-04T01:37:04.234Z,8.40
2023-05-04T01:39:38.223Z,8.90
2023-05-04T01:42:11.671Z,8.30
2023-05-04T01:44:45.290Z,7.70
2023-05-04T01:47:19.520Z,8.80
2023-05-04T01:49:52.885Z,8.30
2023-05-04T01:52:26.191Z,8.50
2023-05-04T01:55:00.121Z,8.30
2023-05-04T01:57:33.756Z,9.00
2023-05-04T02:00:08.368Z,8.80
2023-05-04T02:02:51.363Z,8.60
2023-05-04T02:05:25.870Z,9.30
2023-05-04T02:08:00.294Z,8.10
2023-05-04T02:10:34.270Z,8.10
2023-05-04T02:13:07.709Z,8.20
2023-05-04T02:15:41.167Z,8.30
2023-05-04T02:18:14.640Z,8.00
2023-05-04T02:20:48.536Z,7.70
2023-05-04T02:23:22.277Z,8.60
2023-05-04T02:25:56.371Z,8.10
2023-05-04T02:28:31.140Z,9.30
2023-05-04T02:31:04.635Z,8.20
2023-05-04T02:33:38.293Z,8.20
2023-05-04T02:36:12.500Z,8.00
2023-05-04T02:38:46.937Z,7.70
2023-05-04T02:41:20.869Z,8.00
2023-05-04T02:43:55.053Z,8.10
2023-05-04T02:46:28.493Z,7.90
2023-05-04T02:49:04.486Z,9.40
2023-05-04T02:51:38.379Z,8.00
2023-05-04T02:54:12.384Z,8.80
2023-05-04T02:56:46.102Z,7.90
2023-05-04T02:59:19.700Z,8.20
2023-05-04T03:01:53.761Z,9.60
2023-05-04T03:04:27.774Z,8.70
2023-05-04T03:07:02.043Z,8.90
2023-05-04T03:09:36.106Z,8.70
2023-05-04T03:12:09.865Z,8.90
2023-05-04T03:14:43.797Z,7.80
2023-05-04T03:17:18.141Z,8.00
2023-05-04T03:19:52.077Z,7.80
2023-05-04T03:22:26.429Z,8.80
2023-05-04T03:25:00.468Z,9.20
2023-05-04T03:27:34.144Z,8.90
2023-05-04T03:30:09.754Z,8.50
2023-05-04T03:32:43.867Z,8.30
2023-05-04T03:35:24.368Z,8.30
2023-05-04T03:37:59.983Z,8.60
2023-05-04T03:40:33.500Z,8.20
2023-05-04T03:43:07.182Z,8.80
2023-05-04T03:45:41.056Z,9.20
2023-05-04T03:48:14.875Z,8.80
2023-05-04T03:50:48.709Z,8.70
2023-05-04T03:53:22.271Z,9.00
2023-05-04T03:55:56.110Z,8.40
2023-05-04T03:58:30.034Z,8.80
2023-05-04T04:01:08.139Z,8.20
2023-05-04T04:03:42.399Z,8.00
2023-05-04T04:06:16.287Z,7.60
2023-05-04T04:08:50.103Z,8.10
2023-05-04T04:11:24.558Z,8.50
2023-05-04T04:13:58.079Z,8.70
2023-05-04T04:16:31.820Z,8.50
2023-05-04T04:19:07.163Z,9.20
2023-05-04T04:21:41.037Z,9.10
2023-05-04T04:24:14.711Z,10.20
2023-05-04T04:26:48.512Z,9.40
2023-05-04T04:29:22.250Z,10.00
2023-05-04T04:31:56.160Z,10.00
2023-05-04T04:34:30.178Z,9.20
2023-05-04T04:37:03.847Z,9.60
2023-05-04T04:39:37.340Z,9.40
2023-05-04T04:42:11.083Z,9.40
2023-05-04T04:44:46.035Z,9.10
2023-05-04T04:47:19.553Z,9.90
2023-05-04T04:49:53.152Z,9.50
2023-05-04T04:52:27.299Z,9.40
2023-05-04T04:55:00.996Z,11.00
2023-05-04T04:57:34.710Z,10.50
2023-05-04T05:00:11.697Z,10.50
2023-05-04T05:02:45.617Z,10.10
2023-05-04T05:05:19.584Z,10.30
2023-05-04T05:07:53.365Z,11.80
2023-05-04T05:10:27.295Z,11.60
2023-05-04T05:13:01.078Z,11.10
2023-05-04T05:15:35.028Z,11.40
2023-05-04T05:18:09.027Z,11.40
2023-05-04T05:20:42.994Z,12.00
2023-05-04T05:23:16.823Z,12.50
2023-05-04T05:25:51.866Z,13.20
2023-05-04T05:28:26.120Z,13.50
2023-05-04T05:31:00.216Z,13.20
2023-05-04T05:33:34.317Z,13.10
2023-05-04T05:36:08.491Z,13.80
2023-05-04T05:38:42.414Z,13.60
2023-05-04T05:41:16.713Z,13.00
2023-05-04T05:43:50.507Z,13.60
2023-05-04T05:46:25.442Z,13.40
2023-05-04T05:48:59.254Z,13.40
2023-05-04T05:51:33.711Z,14.20
2023-05-04T05:54:07.520Z,13.00
2023-05-04T05:56:41.415Z,14.70
2023-05-04T05:59:16.287Z,14.00
2023-05-04T06:01:50.426Z,14.80
2023-05-04T06:04:24.290Z,15.00
2023-05-04T06:06:58.597Z,14.20
2023-05-04T06:09:32.941Z,14.60
2023-05-04T06:12:12.660Z,14.70
2023-05-04T06:14:46.239Z,14.40
2023-05-04T06:17:22.147Z,14.60
2023-05-04T06:20:06.007Z,15.00
2023-05-04T06:22:40.080Z,13.00
2023-05-04T06:25:14.058Z,13.00
2023-05-04T06:27:48.088Z,12.20
2023-05-04T06:30:25.225Z,12.70
2023-05-04T06:32:58.786Z,12.90
2023-05-04T06:35:32.536Z,12.50
2023-05-04T06:38:06.063Z,11.30
2023-05-04T06:40:39.575Z,12.70
2023-05-04T06:43:13.320Z,11.80
2023-05-04T06:45:47.155Z,12.90
2023-05-04T06:48:20.571Z,13.40
2023-05-04T06:50:54.129Z,13.10
2023-05-04T06:53:28.370Z,13.20
2023-05-04T06:56:04.664Z,12.40
2023-05-04T06:58:39.212Z,12.00
2023-05-04T07:01:12.955Z,12.50
2023-05-04T07:03:46.604Z,12.10
2023-05-04T07:06:26.963Z,11.90
2023-05-04T07:09:00.270Z,10.80
2023-05-04T07:11:33.837Z,10.20
2023-05-04T07:14:09.735Z,9.90
2023-05-04T07:16:44.594Z,10.10
2023-05-04T07:19:18.257Z,8.10
2023-05-04T07:21:52.153Z,7.90
2023-05-04T07:24:25.926Z,8.60
2023-05-04T07:26:59.578Z,7.90
2023-05-04T07:29:33.920Z,8.00
2023-05-04T07:32:07.649Z,8.20
2023-05-04T07:34:45.514Z,8.70
2023-05-04T07:37:53.157Z,9.90
2023-05-04T07:40:27.153Z,7.90
2023-05-04T07:43:01.237Z,8.30
2023-05-04T07:45:35.071Z,7.80
2023-05-04T07:48:09.265Z,7.40
2023-05-04T07:51:36.615Z,7.00
2023-05-04T07:54:10.178Z,5.00
2023-05-04T07:56:43.986Z,4.90
2023-05-04T07:59:18.813Z,4.00
2023-05-04T08:01:52.914Z,4.30
2023-05-04T08:04:26.447Z,4.00
2023-05-04T08:07:00.031Z,3.60
2023-05-04T08:09:33.789Z,2.90
2023-05-04T08:12:08.323Z,3.10
2023-05-04T08:14:42.473Z,3.70
2023-05-04T08:17:16.163Z,2.10
2023-05-04T08:19:49.796Z,2.00
2023-05-04T08:22:23.578Z,2.40
2023-05-04T08:24:57.696Z,3.00
2023-05-04T08:27:31.676Z,2.40
2023-05-04T08:30:05.514Z,2.50
2023-05-04T08:32:39.536Z,2.30
2023-05-04T08:35:14.745Z,2.50
2023-05-04T08:37:49.485Z,2.70
2023-05-04T08:40:24.610Z,2.40
2023-05-04T08:42:58.748Z,2.50
2023-05-04T08:45:33.108Z,2.30
2023-05-04T08:48:07.872Z,2.00
2023-05-04T08:50:42.632Z,2.30
2023-05-04T08:53:17.769Z,2.10
2023-05-04T08:55:53.526Z,2.00
2023-05-04T08:58:29.049Z,2.30
2023-05-04T09:01:04.722Z,2.30
2023-05-04T09:03:39.224Z,2.40
2023-05-04T09:06:13.377Z,2.60
2023-05-04T09:08:47.881Z,2.70
2023-05-04T09:11:21.975Z,2.60
2023-05-04T09:13:55.797Z,2.70
2023-05-04T09:16:38.222Z,2.40
2023-05-04T09:19:22.907Z,2.90
2023-05-04T09:21:56.619Z,2.70
2023-05-04T09:24:31.291Z,2.60
2023-05-04T09:27:16.206Z,2.40
2023-05-04T09:29:56.790Z,2.50
2023-05-04T09:32:30.704Z,2.90
2023-05-04T09:35:04.299Z,2.70
2023-05-04T09:37:47.398Z,2.70
2023-05-04T09:40:31.337Z,2.40
2023-05-04T09:43:07.200Z,2.70
2023-05-04T09:45:49.623Z,2.80
2023-05-04T09:48:35.439Z,2.50
2023-05-04T09:51:10.561Z,2.90
2023-05-04T09:53:46.298Z,3.30
2023-05-04T09:56:29.288Z,3.10
2023-05-04T09:59:03.793Z,2.70
2023-05-04T10:01:38.380Z,3.00
2023-05-04T10:04:13.415Z,3.00
2023-05-04T10:06:47.685Z,2.80
2023-05-04T10:09:23.079Z,3.20
2023-05-04T10:12:00.063Z,3.00
2023-05-04T10:14:37.125Z,3.90
2023-05-04T10:17:23.004Z,3.10
2023-05-04T10:20:08.848Z,3.30
2023-05-04T10:22:59.428Z,3.70
2023-05-04T10:25:54.546Z,3.40
2023-05-04T10:28:43.790Z,3.20
2023-05-04T10:31:21.880Z,3.20
2023-05-04T10:33:56.634Z,3.80
2023-05-04T10:36:39.613Z,3.60
2023-05-04T10:39:23.055Z,3.40
2023-05-04T10:42:16.947Z,3.10
2023-05-04T10:44:57.594Z,3.30
2023-05-04T10:47:36.086Z,3.40
2023-05-04T10:50:14.735Z,2.90
2023-05-04T10:52:54.057Z,2.70
2023-05-04T10:55:41.098Z,3.00
2023-05-04T10:58:17.171Z,2.90
2023-05-04T11:00:55.060Z,3.00
2023-05-04T11:03:39.657Z,3.00
2023-05-04T11:06:24.005Z,3.20
2023-05-04T11:09:11.167Z,3.20
2023-05-04T11:11:45.515Z,3.20
2023-05-04T11:14:28.652Z,3.10
2023-05-04T11:17:27.600Z,3.00
2023-05-04T11:20:03.115Z,3.40
2023-05-04T11:22:38.748Z,2.80
2023-05-04T11:25:13.102Z,3.10
2023-05-04T11:27:50.847Z,3.40
2023-05-04T11:30:32.915Z,3.20
2023-05-04T11:33:14.448Z,3.00
2023-05-04T11:35:48.270Z,3.50
2023-05-04T11:38:22.847Z,3.20
2023-05-04T11:40:57.605Z,3.20
2023-05-04T11:43:32.280Z,3.10
2023-05-04T11:46:08.706Z,3.20
2023-05-04T11:48:45.846Z,3.10
2023-05-04T11:51:19.524Z,3.20
2023-05-04T11:53:53.189Z,3.20
2023-05-04T11:56:26.899Z,2.80
2023-05-04T11:59:11.363Z,3.10
2023-05-04T12:01:45.261Z,3.10
2023-05-04T12:04:19.344Z,3.30
2023-05-04T12:06:52.977Z,3.10
2023-05-04T12:09:27.264Z,3.20
2023-05-04T12:12:01.029Z,3.30
2023-05-04T12:14:35.270Z,3.00
2023-05-04T12:17:08.657Z,3.30
2023-05-04T12:19:51.430Z,3.10
2023-05-04T12:22:33.023Z,3.20
2023-05-04T12:25:09.512Z,3.00
2023-05-04T12:27:45.786Z,3.10
2023-05-04T12:30:20.101Z,3.30
2023-05-04T12:32:54.014Z,3.10
2023-05-04T12:35:28.317Z,3.40
2023-05-04T12:38:02.375Z,3.50
2023-05-04T12:40:36.826Z,3.10
2023-05-04T12:43:11.382Z,3.40
2023-05-04T12:45:45.014Z,3.20
2023-05-04T12:48:18.847Z,3.10
2023-05-04T12:50:53.346Z,3.20
2023-05-04T12:53:31.816Z,2.90
2023-05-04T12:56:05.991Z,3.10
2023-05-04T12:58:40.146Z,3.10
2023-05-04T13:01:13.832Z,2.80
2023-05-04T13:03:47.433Z,2.90
2023-05-04T13:06:21.638Z,3.40
2023-05-04T13:08:55.285Z,3.10
2023-05-04T13:11:29.386Z,3.70
2023-05-04T13:14:03.700Z,3.20
2023-05-04T13:16:37.659Z,3.00
2023-05-04T13:19:11.677Z,3.20
2023-05-04T13:21:45.809Z,3.00
2023-05-04T13:24:19.624Z,3.10
2023-05-04T13:26:53.419Z,3.60
2023-05-04T13:29:27.498Z,3.30
2023-05-04T13:32:01.132Z,3.20
2023-05-04T13:34:35.016Z,2.90
2023-05-04T13:37:08.736Z,2.80
2023-05-04T13:39:45.875Z,2.80
2023-05-04T13:42:20.343Z,3.10
2023-05-04T13:44:54.339Z,2.70
2023-05-04T13:47:27.883Z,2.90
2023-05-04T13:50:02.335Z,3.20
2023-05-04T13:52:36.322Z,2.60
2023-05-04T13:55:11.590Z,2.80
2023-05-04T13:57:45.662Z,3.20
2023-05-04T14:00:21.256Z,3.60
2023-05-04T14:02:55.317Z,3.80
2023-05-04T14:05:29.545Z,2.80
2023-05-04T14:08:03.586Z,3.10
2023-05-04T14:10:37.727Z,3.40
2023-05-04T14:13:11.793Z,3.20
2023-05-04T14:15:46.437Z,3.00
2023-05-04T14:18:20.424Z,3.30
2023-05-04T14:20:54.695Z,3.30
2023-05-04T14:23:28.560Z,3.10
2023-05-04T14:26:02.492Z,3.80
2023-05-04T14:28:36.778Z,3.10
2023-05-04T14:31:10.565Z,3.50
2023-05-04T14:33:45.928Z,3.00
2023-05-04T14:36:19.440Z,3.20
2023-05-04T14:38:53.418Z,2.90
2023-05-04T14:41:27.462Z,3.70
2023-05-04T14:44:22.980Z,3.20
2023-05-04T14:46:57.267Z,3.50
2023-05-04T14:52:09.587Z,3.00
2023-05-04T14:54:46.427Z,3.40
2023-05-04T14:57:20.180Z,2.90
2023-05-04T14:59:54.369Z,3.20
2023-05-04T15:02:28.312Z,3.20
2023-05-04T15:05:02.630Z,3.00
2023-05-04T15:07:36.539Z,2.90
2023-05-04T15:10:12.582Z,3.00
2023-05-04T15:12:46.776Z,3.40
2023-05-04T15:15:21.625Z,2.80
2023-05-04T15:17:59.815Z,2.90
2023-05-04T15:20:33.911Z,3.20
2023-05-04T15:23:11.374Z,3.80
2023-05-04T15:25:44.969Z,3.20
2023-05-04T15:28:23.004Z,3.50
2023-05-04T15:30:57.320Z,3.10
2023-05-04T15:33:31.502Z,3.00
2023-05-04T15:36:09.672Z,3.10
2023-05-04T15:38:45.289Z,2.90
2023-05-04T15:41:19.418Z,3.40
2023-05-04T15:43:53.364Z,3.30
2023-05-04T15:46:27.102Z,3.10
2023-05-04T15:49:01.026Z,3.30
2023-05-04T15:51:35.492Z,3.30
2023-05-04T15:54:09.502Z,3.40
2023-05-04T15:56:43.499Z,3.40
2023-05-04T15:59:18.300Z,3.30
2023-05-04T16:01:52.165Z,3.20
2023-05-04T16:04:25.798Z,3.20
2023-05-04T16:06:59.647Z,3.20
2023-05-04T16:09:33.584Z,3.20
2023-05-04T16:12:08.318Z,3.30
2023-05-04T16:14:42.267Z,2.90
2023-05-04T16:17:17.083Z,3.20
2023-05-04T16:19:50.748Z,3.00
2023-05-04T16:22:24.412Z,3.40
2023-05-04T16:24:58.016Z,3.40
2023-05-04T16:27:31.344Z,3.40
2023-05-04T16:30:05.069Z,3.20
2023-05-04T16:32:39.371Z,3.80
2023-05-04T16:35:13.588Z,3.70
2023-05-04T16:37:47.272Z,3.40
2023-05-04T16:40:21.923Z,3.50
2023-05-04T16:42:55.779Z,3.90
2023-05-04T16:45:32.212Z,4.00
2023-05-04T16:48:07.174Z,3.40
2023-05-04T16:50:41.745Z,3.10
2023-05-04T16:53:15.212Z,3.60
2023-05-04T16:55:48.991Z,3.50
2023-05-04T16:58:22.950Z,3.20
2023-05-04T17:00:58.651Z,3.50
2023-05-04T17:03:33.098Z,4.40
2023-05-04T17:06:07.750Z,4.20
2023-05-04T17:08:41.873Z,3.10
2023-05-04T17:11:16.396Z,3.50
2023-05-04T17:13:50.113Z,3.70
2023-05-04T17:16:23.528Z,3.70
2023-05-04T17:18:57.385Z,3.40
2023-05-04T17:21:31.524Z,3.00
2023-05-04T17:24:05.372Z,3.50
2023-05-04T17:26:39.516Z,4.10
2023-05-04T17:29:13.291Z,3.60
2023-05-04T17:31:46.824Z,4.10
2023-05-04T17:34:20.498Z,3.90
2023-05-04T17:36:54.241Z,3.70
2023-05-04T17:39:27.732Z,4.40
2023-05-04T17:42:02.076Z,3.60
2023-05-04T17:44:35.843Z,4.60
2023-05-04T17:47:09.809Z,6.10
2023-05-04T17:49:43.636Z,5.90
2023-05-04T17:52:17.816Z,5.40
2023-05-04T17:54:51.662Z,5.30
2023-05-04T17:57:25.276Z,4.70
2023-05-04T18:00:00.088Z,3.60
2023-05-04T18:02:34.970Z,3.10
2023-05-04T18:05:10.323Z,3.20
2023-05-04T18:07:44.241Z,3.10
2023-05-04T18:10:18.359Z,2.90
2023-05-04T18:12:56.970Z,3.20
2023-05-04T18:18:03.714Z,3.40
2023-05-04T18:20:37.179Z,3.50
2023-05-04T18:23:11.743Z,2.90
2023-05-04T18:25:45.809Z,3.20
2023-05-04T18:28:21.344Z,3.10
2023-05-04T18:30:55.332Z,4.10
2023-05-04T18:33:29.523Z,4.50
2023-05-04T18:36:03.888Z,3.90
2023-05-04T18:38:38.877Z,3.70
2023-05-04T18:41:13.687Z,3.60
2023-05-04T18:43:49.071Z,3.60
2023-05-04T18:46:28.186Z,3.00
2023-05-04T18:49:02.051Z,3.30
2023-05-04T18:51:42.369Z,3.70
2023-05-04T18:54:18.029Z,3.40
2023-05-04T18:56:54.437Z,3.70
2023-05-04T18:59:29.635Z,3.50
2023-05-04T19:02:05.998Z,4.30
2023-05-04T19:04:40.540Z,4.60
2023-05-04T19:07:15.757Z,4.40
2023-05-04T19:09:49.775Z,4.40
2023-05-04T19:12:24.322Z,4.20
2023-05-04T19:14:58.225Z,4.90
2023-05-04T19:17:35.435Z,4.20
2023-05-04T19:20:11.289Z,3.90
2023-05-04T19:22:45.269Z,4.10
2023-05-04T19:25:30.930Z,4.30
2023-05-04T19:28:09.771Z,3.30
2023-05-04T19:30:43.766Z,3.80
2023-05-04T19:33:17.112Z,3.50
2023-05-04T19:35:50.577Z,3.50
2023-05-04T19:38:24.790Z,3.90
2023-05-04T19:40:59.393Z,3.60
2023-05-04T19:43:33.941Z,3.40
2023-05-04T19:46:08.408Z,3.60
2023-05-04T19:48:42.229Z,6.40
2023-05-04T19:51:16.035Z,4.10
2023-05-04T19:53:49.408Z,4.10
2023-05-04T19:56:23.223Z,3.50
2023-05-04T19:58:57.439Z,3.70
2023-05-04T20:01:32.058Z,3.70
2023-05-04T20:04:08.635Z,4.40
2023-05-04T20:06:43.251Z,4.10
2023-05-04T20:09:18.036Z,5.00
2023-05-04T20:11:51.504Z,4.70
2023-05-04T20:14:25.776Z,4.60
2023-05-04T20:17:00.325Z,4.30
2023-05-04T20:19:34.504Z,4.90
2023-05-04T20:22:08.172Z,4.50
2023-05-04T20:24:41.551Z,4.90
2023-05-04T20:27:15.498Z,4.40
2023-05-04T20:29:49.249Z,5.00
2023-05-04T20:32:23.197Z,4.70
2023-05-04T20:34:56.955Z,5.00
2023-05-04T20:37:30.859Z,5.20
2023-05-04T20:40:04.543Z,4.80
2023-05-04T20:42:42.409Z,5.10
2023-05-04T20:45:15.685Z,5.30
2023-05-04T20:47:49.713Z,4.80
2023-05-04T20:50:23.355Z,5.00
2023-05-04T20:52:56.866Z,4.80
2023-05-04T20:55:33.340Z,4.60
2023-05-04T20:58:06.684Z,4.80
2023-05-04T21:00:40.451Z,4.70
2023-05-04T21:03:13.867Z,5.10
2023-05-04T21:05:47.438Z,4.60
2023-05-04T21:08:20.635Z,4.50
2023-05-04T21:10:54.003Z,4.30
2023-05-04T21:13:27.669Z,3.70
2023-05-04T21:16:01.940Z,4.50
2023-05-04T21:18:36.386Z,4.30
2023-05-04T21:21:10.542Z,4.70
2023-05-04T21:23:44.181Z,3.90
2023-05-04T21:26:18.223Z,4.00
2023-05-04T21:28:52.596Z,4.00
2023-05-04T21:31:26.644Z,4.60
2023-05-04T21:34:00.448Z,4.70
2023-05-04T21:36:33.993Z,4.70
2023-05-04T21:39:07.825Z,4.00
2023-05-04T21:41:41.579Z,4.50
2023-05-04T21:44:15.036Z,4.60
2023-05-04T21:46:48.761Z,4.30
2023-05-04T21:49:22.645Z,4.50
2023-05-04T21:51:56.248Z,4.50
2023-05-04T21:54:29.657Z,4.90
2023-05-04T21:57:03.916Z,5.10
2023-05-04T21:59:37.517Z,4.50
2023-05-04T22:02:11.417Z,4.90
2023-05-04T22:04:47.553Z,5.30
2023-05-04T22:07:21.096Z,5.10
2023-05-04T22:09:55.339Z,5.60
2023-05-04T22:12:29.263Z,5.40
2023-05-04T22:15:02.876Z,5.40
2023-05-04T22:17:36.585Z,5.40
2023-05-04T22:20:11.759Z,5.70
2023-05-04T22:22:45.371Z,5.70
2023-05-04T22:25:19.193Z,5.30
2023-05-04T22:27:53.036Z,6.30
2023-05-04T22:30:26.493Z,5.10
2023-05-04T22:33:00.108Z,5.70
2023-05-04T22:35:33.651Z,5.60
2023-05-04T22:38:07.679Z,5.00
2023-05-04T22:40:43.169Z,5.80
2023-05-04T22:43:16.815Z,6.10
2023-05-04T22:45:50.688Z,5.20
2023-05-04T22:48:24.329Z,5.00
2023-05-04T22:50:58.105Z,5.80
2023-05-04T22:53:31.757Z,5.40
2023-05-04T22:56:05.826Z,6.10
2023-05-04T22:58:39.981Z,6.10
2023-05-04T23:01:14.167Z,5.70
2023-05-04T23:03:50.642Z,5.80
2023-05-04T23:06:24.727Z,5.20
2023-05-04T23:08:58.412Z,5.10
2023-05-04T23:11:32.227Z,5.50
2023-05-04T23:14:05.742Z,5.80
2023-05-04T23:16:39.533Z,6.50
2023-05-04T23:19:13.423Z,6.20
2023-05-04T23:21:47.269Z,5.50
2023-05-04T23:24:21.041Z,5.50
2023-05-04T23:26:54.805Z,5.70
2023-05-04T23:29:28.605Z,5.20
2023-05-04T23:32:02.330Z,5.20
2023-05-04T23:34:36.149Z,5.20
2023-05-04T23:37:09.836Z,5.80
2023-05-04T23:39:43.493Z,5.70
2023-05-04T23:42:17.101Z,6.20
2023-05-04T23:44:50.469Z,6.40
2023-05-04T23:47:24.234Z,6.40
2023-05-04T23:49:57.816Z,6.20
2023-05-04T23:52:31.194Z,5.60
2023-05-04T23:55:05.176Z,6.00
2023-05-04T23:57:38.618Z,6.10
